createdAt,value
2023-12-30T00:01:48.624Z,99073.75
2023-12-30T00:04:18.952Z,99073.81
2023-12-30T00:06:49.726Z,99069.58
2023-12-30T00:09:20.311Z,99072.94
2023-12-30T00:11:51.241Z,99065.20
2023-12-30T00:14:20.118Z,99060.96
2023-12-30T00:16:51.206Z,99061.25
2023-12-30T00:19:21.536Z,99058.50
2023-12-30T00:21:51.245Z,99068.65
2023-12-30T00:24:21.394Z,99072.91
2023-12-30T00:26:51.799Z,99078.14
2023-12-30T00:29:22.976Z,99062.88
2023-12-30T00:31:52.506Z,99056.48
2023-12-30T00:34:23.154Z,99052.98
2023-12-30T00:36:53.620Z,99050.05
2023-12-30T00:39:25.281Z,99044.85
2023-12-30T00:41:54.926Z,99045.73
2023-12-30T00:44:25.568Z,99049.70
2023-12-30T00:46:56.835Z,99035.41
2023-12-30T00:49:27.567Z,99038.32
2023-12-30T00:51:58.616Z,99030.63
2023-12-30T00:54:37.968Z,99038.78
2023-12-30T00:57:11.869Z,99040.23
2023-12-30T00:59:43.858Z,99041.58
2023-12-30T01:02:13.727Z,99042.04
2023-12-30T01:04:44.550Z,99037.05
2023-12-30T01:07:15.567Z,99037.63
2023-12-30T01:09:46.744Z,99032.56
2023-12-30T01:12:17.380Z,99033.29
2023-12-30T01:14:47.816Z,99032.39
2023-12-30T01:17:18.668Z,99032.51
2023-12-30T01:19:48.676Z,99039.42
2023-12-30T01:22:20.071Z,99036.61
2023-12-30T01:24:50.504Z,99038.31
2023-12-30T01:27:21.734Z,99038.38
2023-12-30T01:29:51.662Z,99036.94
2023-12-30T01:32:23.305Z,99037.90
2023-12-30T01:34:52.837Z,99028.73
2023-12-30T01:37:23.602Z,99020.80
2023-12-30T01:39:53.444Z,99016.56
2023-12-30T01:42:25.895Z,99011.45
2023-12-30T01:44:55.518Z,99006.85
2023-12-30T01:47:24.625Z,98999.92
2023-12-30T01:49:54.224Z,99000.48
2023-12-30T01:52:25.003Z,98996.52
2023-12-30T01:54:55.682Z,98994.89
2023-12-30T01:57:24.848Z,98993.48
2023-12-30T01:59:55.582Z,98993.59
2023-12-30T02:02:25.350Z,98994.83
2023-12-30T02:04:56.181Z,98992.02
2023-12-30T02:07:26.212Z,98989.17
2023-12-30T02:09:56.367Z,98972.80
2023-12-30T02:12:25.500Z,98968.40
2023-12-30T02:14:54.445Z,98958.22
2023-12-30T02:17:26.110Z,98952.02
2023-12-30T02:19:57.268Z,98952.89
2023-12-30T02:22:27.523Z,98956.64
2023-12-30T02:25:01.374Z,98954.93
2023-12-30T02:27:31.235Z,98947.05
2023-12-30T02:30:00.577Z,98940.05
2023-12-30T02:32:30.888Z,98934.75
2023-12-30T02:35:01.209Z,98924.77
2023-12-30T02:37:32.034Z,98928.33
2023-12-30T02:40:02.117Z,98929.91
2023-12-30T02:42:33.978Z,98911.66
2023-12-30T02:45:33.019Z,98903.06
2023-12-30T02:48:02.893Z,98904.06
2023-12-30T02:50:33.942Z,98903.69
2023-12-30T02:53:04.089Z,98897.66
2023-12-30T02:55:34.529Z,98895.76
2023-12-30T02:58:04.341Z,98890.98
2023-12-30T03:00:34.829Z,98885.41
2023-12-30T03:03:04.986Z,98884.16
2023-12-30T03:05:34.428Z,98883.34
2023-12-30T03:08:04.343Z,98874.23
2023-12-30T03:10:35.461Z,98867.91
2023-12-30T03:13:06.272Z,98863.48
2023-12-30T03:15:35.659Z,98854.95
2023-12-30T03:18:05.508Z,98850.27
2023-12-30T03:20:35.750Z,98839.76
2023-12-30T03:23:05.132Z,98832.79
2023-12-30T03:25:38.891Z,98829.65
2023-12-30T03:28:09.250Z,98822.27
2023-12-30T03:30:39.286Z,98819.27
2023-12-30T03:33:09.279Z,98818.05
2023-12-30T03:35:40.335Z,98816.48
2023-12-30T03:38:08.991Z,98810.44
2023-12-30T03:40:38.382Z,98803.04
2023-12-30T03:43:08.174Z,98798.86
2023-12-30T03:46:08.242Z,98804.90
2023-12-30T03:48:39.887Z,98796.49
2023-12-30T03:51:12.384Z,98827.52
2023-12-30T03:53:41.788Z,98863.57
2023-12-30T03:56:13.436Z,98869.09
2023-12-30T03:58:42.936Z,98888.12
2023-12-30T04:01:12.195Z,98918.73
2023-12-30T04:03:42.268Z,98909.90
2023-12-30T04:06:18.031Z,98927.22
2023-12-30T04:08:47.777Z,98934.00
2023-12-30T04:11:16.418Z,98939.16
2023-12-30T04:13:45.310Z,98957.30
2023-12-30T04:16:16.793Z,98961.29
2023-12-30T04:18:46.702Z,98944.10
2023-12-30T04:21:17.934Z,98941.52
2023-12-30T04:23:48.302Z,98954.53
2023-12-30T04:26:17.004Z,98944.45
2023-12-30T04:28:49.798Z,98941.08
2023-12-30T04:31:20.733Z,98948.44
2023-12-30T04:33:50.163Z,98937.34
2023-12-30T04:36:21.490Z,98921.20
2023-12-30T04:38:51.997Z,98934.21
2023-12-30T04:41:24.388Z,98944.30
2023-12-30T04:43:56.142Z,98949.48
2023-12-30T04:46:50.467Z,98954.72
2023-12-30T04:49:20.653Z,98955.09
2023-12-30T04:51:51.086Z,98949.38
2023-12-30T04:54:19.784Z,98954.00
2023-12-30T04:56:48.647Z,98963.08
2023-12-30T04:59:19.008Z,98963.33
2023-12-30T05:01:49.935Z,98961.85
2023-12-30T05:04:20.421Z,98960.95
2023-12-30T05:06:50.009Z,98953.30
2023-12-30T05:09:22.040Z,98965.27
2023-12-30T05:11:52.741Z,98968.65
2023-12-30T05:14:23.497Z,98970.02
2023-12-30T05:16:52.725Z,98973.20
2023-12-30T05:19:21.404Z,98977.12
2023-12-30T05:21:53.282Z,98976.91
2023-12-30T05:24:23.877Z,98986.39
2023-12-30T05:26:54.521Z,98990.48
2023-12-30T05:29:25.256Z,98997.55
2023-12-30T05:31:55.924Z,98996.48
2023-12-30T05:34:26.107Z,99007.17
2023-12-30T05:36:56.594Z,99015.38
2023-12-30T05:39:26.998Z,99017.46
2023-12-30T05:41:56.596Z,99025.20
2023-12-30T05:44:27.114Z,99030.86
2023-12-30T05:46:57.552Z,99029.14
2023-12-30T05:49:28.499Z,99031.66
2023-12-30T05:51:59.049Z,99034.38
2023-12-30T05:54:28.304Z,99031.03
2023-12-30T05:56:57.012Z,99028.78
2023-12-30T05:59:28.252Z,99021.16
2023-12-30T06:02:00.863Z,99020.11
2023-12-30T06:04:31.019Z,99014.36
2023-12-30T06:07:01.805Z,99017.41
2023-12-30T06:09:30.785Z,99023.77
2023-12-30T06:12:00.203Z,99033.72
2023-12-30T06:14:30.453Z,99036.05
2023-12-30T06:17:00.890Z,99039.18
2023-12-30T06:19:31.292Z,99041.13
2023-12-30T06:22:01.721Z,99039.29
2023-12-30T06:24:31.495Z,99052.55
2023-12-30T06:27:00.836Z,99061.33
2023-12-30T06:29:31.563Z,99064.84
2023-12-30T06:32:05.725Z,99067.45
2023-12-30T06:34:36.235Z,99064.77
2023-12-30T06:37:06.594Z,99060.88
2023-12-30T06:39:37.299Z,99061.26
2023-12-30T06:42:06.794Z,99069.42
2023-12-30T06:44:40.765Z,99060.16
2023-12-30T06:47:11.083Z,99062.92
2023-12-30T06:49:41.015Z,99066.47
2023-12-30T06:52:11.258Z,99068.54
2023-12-30T06:54:44.441Z,99066.46
2023-12-30T06:57:15.123Z,99071.45
2023-12-30T06:59:44.663Z,99072.00
2023-12-30T07:02:15.434Z,99073.23
2023-12-30T07:04:44.435Z,99079.02
2023-12-30T07:07:15.317Z,99088.21
2023-12-30T07:09:45.325Z,99092.87
2023-12-30T07:12:15.045Z,99097.07
2023-12-30T07:14:43.933Z,99100.40
2023-12-30T07:17:14.034Z,99105.54
2023-12-30T07:19:42.948Z,99114.14
2023-12-30T07:22:13.673Z,99104.27
2023-12-30T07:24:46.584Z,99114.31
2023-12-30T07:27:16.194Z,99115.20
2023-12-30T07:29:45.296Z,99115.48
2023-12-30T07:32:14.689Z,99124.56
2023-12-30T07:34:43.446Z,99123.39
2023-12-30T07:37:13.138Z,99116.73
2023-12-30T07:39:42.426Z,99113.70
2023-12-30T07:42:11.295Z,99113.37
2023-12-30T07:44:42.974Z,99120.64
2023-12-30T07:47:13.082Z,99128.52
2023-12-30T07:49:43.700Z,99135.06
2023-12-30T07:52:13.890Z,99135.42
2023-12-30T07:54:45.184Z,99147.77
2023-12-30T07:57:15.737Z,99150.86
2023-12-30T07:59:46.179Z,99156.83
2023-12-30T08:02:16.631Z,99152.81
2023-12-30T08:04:47.051Z,99157.97
2023-12-30T08:07:18.929Z,99152.85
2023-12-30T08:09:50.205Z,99152.60
2023-12-30T08:12:20.794Z,99162.30
2023-12-30T08:14:49.553Z,99158.52
2023-12-30T08:17:19.337Z,99161.34
2023-12-30T08:19:50.469Z,99157.09
2023-12-30T08:22:20.535Z,99163.09
2023-12-30T08:24:49.964Z,99159.45
2023-12-30T08:27:20.371Z,99163.45
2023-12-30T08:29:50.785Z,99163.02
2023-12-30T08:32:20.707Z,99168.15
2023-12-30T08:34:49.528Z,99169.90
2023-12-30T08:37:19.638Z,99176.98
2023-12-30T08:39:48.920Z,99184.36
2023-12-30T08:42:18.083Z,99186.18
2023-12-30T08:45:19.980Z,99185.22
2023-12-30T08:47:49.462Z,99192.59
2023-12-30T08:50:18.747Z,99188.77
2023-12-30T08:52:47.591Z,99197.73
2023-12-30T08:55:16.571Z,99194.92
2023-12-30T08:57:49.611Z,99193.95
2023-12-30T09:00:19.274Z,99197.30
2023-12-30T09:02:49.893Z,99195.86
2023-12-30T09:05:22.383Z,99197.45
2023-12-30T09:07:52.967Z,99204.24
2023-12-30T09:10:22.081Z,99200.48
2023-12-30T09:12:51.560Z,99197.16
2023-12-30T09:15:21.581Z,99206.73
2023-12-30T09:17:54.344Z,99202.49
2023-12-30T09:20:24.943Z,99199.45
2023-12-30T09:22:55.229Z,99199.61
2023-12-30T09:25:26.175Z,99200.09
2023-12-30T09:27:57.527Z,99200.36
2023-12-30T09:30:29.081Z,99193.87
2023-12-30T09:33:00.971Z,99187.67
2023-12-30T09:35:31.933Z,99194.31
2023-12-30T09:38:02.393Z,99195.91
2023-12-30T09:40:33.627Z,99200.30
2023-12-30T09:43:08.038Z,99195.73
2023-12-30T09:46:08.664Z,99201.11
2023-12-30T09:48:39.108Z,99206.54
2023-12-30T09:51:08.203Z,99201.95
2023-12-30T09:53:36.898Z,99206.10
2023-12-30T09:56:07.784Z,99210.03
2023-12-30T09:58:41.733Z,99207.76
2023-12-30T10:01:11.441Z,99208.11
2023-12-30T10:03:41.960Z,99213.98
2023-12-30T10:06:13.053Z,99204.48
2023-12-30T10:08:45.257Z,99208.00
2023-12-30T10:11:13.959Z,99195.55
2023-12-30T10:13:43.027Z,99186.95
2023-12-30T10:16:14.386Z,99197.59
2023-12-30T10:18:43.989Z,99200.20
2023-12-30T10:21:14.016Z,99203.04
2023-12-30T10:23:42.665Z,99202.07
2023-12-30T10:26:11.402Z,99209.80
2023-12-30T10:28:40.859Z,99213.31
2023-12-30T10:31:10.737Z,99216.64
2023-12-30T10:33:42.279Z,99209.25
2023-12-30T10:36:14.157Z,99211.48
2023-12-30T10:38:42.901Z,99216.78
2023-12-30T10:41:12.303Z,99215.56
2023-12-30T10:43:41.581Z,99223.67
2023-12-30T10:46:14.498Z,99220.55
2023-12-30T10:49:05.719Z,99223.50
2023-12-30T10:51:36.146Z,99232.34
2023-12-30T10:54:12.176Z,99231.48
2023-12-30T10:56:46.723Z,99233.93
2023-12-30T10:59:16.676Z,99240.45
2023-12-30T11:01:47.389Z,99235.73
2023-12-30T11:04:18.278Z,99237.73
2023-12-30T11:06:53.559Z,99244.34
2023-12-30T11:09:24.810Z,99244.09
2023-12-30T11:11:54.837Z,99248.23
2023-12-30T11:14:23.967Z,99243.02
2023-12-30T11:16:56.144Z,99245.16
2023-12-30T11:19:37.267Z,99253.11
2023-12-30T11:22:08.790Z,99252.31
2023-12-30T11:24:43.942Z,99245.70
2023-12-30T11:27:15.464Z,99255.82
2023-12-30T11:29:46.199Z,99249.44
2023-12-30T11:32:18.351Z,99266.58
2023-12-30T11:34:49.836Z,99268.14
2023-12-30T11:37:20.631Z,99243.11
2023-12-30T11:39:52.709Z,99264.06
2023-12-30T11:42:33.831Z,99267.17
2023-12-30T11:49:08.891Z,99278.50
2023-12-30T11:51:38.812Z,99273.20
2023-12-30T11:54:08.281Z,99277.11
2023-12-30T11:56:38.488Z,99278.49
2023-12-30T11:59:09.164Z,99284.75
2023-12-30T12:01:38.351Z,99275.50
2023-12-30T12:04:07.422Z,99289.32
2023-12-30T12:06:39.563Z,99294.80
2023-12-30T12:09:11.200Z,99299.57
2023-12-30T12:11:42.071Z,99304.23
2023-12-30T12:14:12.860Z,99314.27
2023-12-30T12:16:42.297Z,99312.20
2023-12-30T12:19:11.386Z,99314.61
2023-12-30T12:21:42.989Z,99324.52
2023-12-30T12:24:11.919Z,99318.61
2023-12-30T12:26:42.887Z,99320.52
2023-12-30T12:29:13.189Z,99314.30
2023-12-30T12:31:45.370Z,99325.70
2023-12-30T12:34:25.051Z,99338.36
2023-12-30T12:36:55.985Z,99330.25
2023-12-30T12:39:26.219Z,99337.80
2023-12-30T12:41:56.100Z,99329.64
2023-12-30T12:44:26.676Z,99328.52
2023-12-30T12:51:24.227Z,99340.91
2023-12-30T12:53:55.390Z,99341.91
2023-12-30T12:56:26.343Z,99349.67
2023-12-30T12:58:55.777Z,99353.35
2023-12-30T13:01:24.563Z,99361.08
2023-12-30T13:03:56.433Z,99362.77
2023-12-30T13:06:27.402Z,99356.02
2023-12-30T13:08:57.974Z,99360.45
2023-12-30T13:11:34.121Z,99374.69
2023-12-30T13:14:05.524Z,99382.13
2023-12-30T13:16:35.529Z,99376.21
2023-12-30T13:19:06.220Z,99382.16
2023-12-30T13:21:36.291Z,99384.77
2023-12-30T13:24:06.630Z,99393.64
2023-12-30T13:26:37.757Z,99397.35
2023-12-30T13:29:08.557Z,99408.77
2023-12-30T13:31:38.943Z,99408.66
2023-12-30T13:34:11.565Z,99410.81
2023-12-30T13:36:43.029Z,99421.65
2023-12-30T13:39:15.383Z,99422.60
2023-12-30T13:41:47.726Z,99425.38
2023-12-30T13:44:19.125Z,99433.40
2023-12-30T13:47:35.509Z,99431.86
2023-12-30T13:50:18.488Z,99425.05
2023-12-30T13:52:52.007Z,99432.92
2023-12-30T13:55:24.249Z,99431.36
2023-12-30T13:57:55.977Z,99435.92
2023-12-30T14:00:25.558Z,99436.56
2023-12-30T14:02:56.138Z,99441.58
2023-12-30T14:05:31.991Z,99441.77
2023-12-30T14:08:32.751Z,99444.55
2023-12-30T14:11:11.040Z,99447.74
2023-12-30T14:13:40.773Z,99449.48
2023-12-30T14:16:15.050Z,99459.08
2023-12-30T14:18:44.466Z,99465.61
2023-12-30T14:21:15.451Z,99470.61
2023-12-30T14:23:45.398Z,99467.67
2023-12-30T14:26:15.405Z,99463.48
2023-12-30T14:28:46.734Z,99466.86
2023-12-30T14:31:18.882Z,99470.84
2023-12-30T14:33:51.817Z,99475.90
2023-12-30T14:36:23.912Z,99479.84
2023-12-30T14:38:53.452Z,99483.73
2023-12-30T14:41:26.412Z,99477.38
2023-12-30T14:43:56.053Z,99484.77
2023-12-30T14:46:54.891Z,99485.16
2023-12-30T14:49:31.762Z,99482.33
2023-12-30T14:52:01.623Z,99490.06
2023-12-30T14:54:31.093Z,99492.01
2023-12-30T14:57:01.230Z,99494.88
2023-12-30T14:59:31.747Z,99501.55
2023-12-30T15:02:05.321Z,99502.75
2023-12-30T15:04:35.814Z,99520.31
2023-12-30T15:07:07.522Z,99516.25
2023-12-30T15:09:37.572Z,99518.11
2023-12-30T15:12:07.377Z,99518.55
2023-12-30T15:14:38.391Z,99519.74
2023-12-30T15:17:08.698Z,99524.77
2023-12-30T15:19:39.065Z,99532.03
2023-12-30T15:22:08.411Z,99535.53
2023-12-30T15:24:39.041Z,99542.69
2023-12-30T15:27:10.276Z,99541.52
2023-12-30T15:29:39.943Z,99539.59
2023-12-30T15:32:10.272Z,99536.21
2023-12-30T15:34:40.517Z,99537.08
2023-12-30T15:37:10.806Z,99543.66
2023-12-30T15:39:40.115Z,99544.30
2023-12-30T15:42:09.403Z,99537.92
2023-12-30T15:44:40.260Z,99547.12
2023-12-30T15:47:16.824Z,99551.53
2023-12-30T15:49:46.963Z,99556.75
2023-12-30T15:52:16.563Z,99565.80
2023-12-30T15:54:45.358Z,99565.44
2023-12-30T15:57:14.796Z,99575.34
2023-12-30T15:59:45.783Z,99574.80
2023-12-30T16:02:15.932Z,99573.48
2023-12-30T16:04:46.815Z,99567.04
2023-12-30T16:07:16.288Z,99565.77
2023-12-30T16:09:47.089Z,99575.59
2023-12-30T16:12:17.156Z,99568.76
2023-12-30T16:14:48.744Z,99569.73
2023-12-30T16:17:19.061Z,99586.95
2023-12-30T16:19:48.557Z,99579.16
2023-12-30T16:22:18.406Z,99575.71
2023-12-30T16:24:48.317Z,99580.73
2023-12-30T16:27:18.867Z,99591.14
2023-12-30T16:29:50.680Z,99595.77
2023-12-30T16:32:22.199Z,99591.25
2023-12-30T16:34:51.794Z,99587.77
2023-12-30T16:37:24.437Z,99593.91
2023-12-30T16:39:56.258Z,99596.83
2023-12-30T16:42:26.288Z,99604.56
2023-12-30T16:45:04.151Z,99599.36
2023-12-30T16:47:36.089Z,99594.88
2023-12-30T16:50:07.865Z,99593.92
2023-12-30T16:52:37.955Z,99594.70
2023-12-30T16:55:12.754Z,99596.34
2023-12-30T16:57:47.009Z,99598.46
2023-12-30T17:00:21.897Z,99605.66
2023-12-30T17:02:52.155Z,99603.59
2023-12-30T17:05:24.129Z,99606.11
2023-12-30T17:07:54.126Z,99610.17
2023-12-30T17:10:25.286Z,99616.16
2023-12-30T17:12:56.662Z,99620.73
2023-12-30T17:15:26.639Z,99620.77
2023-12-30T17:17:58.321Z,99627.17
2023-12-30T17:20:28.054Z,99626.96
2023-12-30T17:22:58.082Z,99626.13
2023-12-30T17:25:28.049Z,99627.08
2023-12-30T17:27:56.930Z,99626.04
2023-12-30T17:30:26.167Z,99628.11
2023-12-30T17:32:56.346Z,99628.08
2023-12-30T17:35:28.309Z,99634.08
2023-12-30T17:37:58.333Z,99640.01
2023-12-30T17:40:28.103Z,99645.58
2023-12-30T17:42:59.089Z,99667.48
2023-12-30T17:45:56.035Z,99681.39
2023-12-30T17:48:24.931Z,99669.46
2023-12-30T17:50:55.460Z,99669.05
2023-12-30T17:53:25.373Z,99671.14
2023-12-30T17:55:56.132Z,99681.44
2023-12-30T17:58:26.011Z,99692.80
2023-12-30T18:00:55.428Z,99701.92
2023-12-30T18:03:26.773Z,99706.23
2023-12-30T18:05:57.192Z,99720.84
2023-12-30T18:08:26.915Z,99726.67
2023-12-30T18:10:57.978Z,99728.99
2023-12-30T18:13:31.182Z,99730.61
2023-12-30T18:16:03.294Z,99727.74
2023-12-30T18:18:33.112Z,99730.00
2023-12-30T18:21:02.508Z,99735.59
2023-12-30T18:23:33.512Z,99743.63
2023-12-30T18:26:03.917Z,99745.42
2023-12-30T18:28:33.692Z,99743.94
2023-12-30T18:31:03.946Z,99750.28
2023-12-30T18:33:33.883Z,99757.15
2023-12-30T18:36:03.065Z,99759.81
2023-12-30T18:38:33.287Z,99752.86
2023-12-30T18:41:04.364Z,99747.26
2023-12-30T18:43:35.052Z,99740.57
2023-12-30T18:46:57.066Z,99735.44
2023-12-30T18:49:28.339Z,99726.77
2023-12-30T18:51:59.464Z,99728.66
2023-12-30T18:54:30.669Z,99730.14
2023-12-30T18:57:01.321Z,99722.13
2023-12-30T18:59:33.227Z,99723.64
2023-12-30T19:02:05.886Z,99724.91
2023-12-30T19:04:37.926Z,99735.73
2023-12-30T19:07:10.992Z,99743.68
2023-12-30T19:09:42.803Z,99749.41
2023-12-30T19:12:12.643Z,99746.52
2023-12-30T19:14:42.361Z,99749.36
2023-12-30T19:17:13.797Z,99749.44
2023-12-30T19:19:44.576Z,99751.84
2023-12-30T19:22:14.981Z,99756.11
2023-12-30T19:24:47.048Z,99758.11
2023-12-30T19:27:17.119Z,99762.73
2023-12-30T19:29:46.559Z,99765.73
2023-12-30T19:32:17.115Z,99768.23
2023-12-30T19:34:47.600Z,99766.05
2023-12-30T19:37:17.798Z,99771.70
2023-12-30T19:39:48.113Z,99776.54
2023-12-30T19:42:17.939Z,99783.20
2023-12-30T19:44:49.331Z,99786.49
2023-12-30T19:47:19.367Z,99787.95
2023-12-30T19:49:48.704Z,99785.66
2023-12-30T19:52:19.455Z,99793.77
2023-12-30T19:54:49.410Z,99797.34
2023-12-30T19:57:20.470Z,99803.35
2023-12-30T19:59:51.141Z,99805.09
2023-12-30T20:02:21.378Z,99806.02
2023-12-30T20:04:52.822Z,99810.14
2023-12-30T20:07:24.080Z,99814.50
2023-12-30T20:09:55.761Z,99823.81
2023-12-30T20:12:31.408Z,99831.00
2023-12-30T20:15:05.910Z,99835.15
2023-12-30T20:17:45.605Z,99841.57
2023-12-30T20:20:20.809Z,99842.84
2023-12-30T20:22:52.568Z,99843.79
2023-12-30T20:25:22.154Z,99841.89
2023-12-30T20:27:54.577Z,99843.91
2023-12-30T20:30:25.279Z,99848.15
2023-12-30T20:32:56.305Z,99852.84
2023-12-30T20:35:29.471Z,99852.88
2023-12-30T20:38:02.761Z,99844.58
2023-12-30T20:40:34.524Z,99839.60
2023-12-30T20:43:08.806Z,99834.86
2023-12-30T20:45:40.253Z,99837.91
2023-12-30T20:48:11.062Z,99853.16
2023-12-30T20:50:41.704Z,99861.12
2023-12-30T20:53:14.339Z,99867.34
2023-12-30T20:55:45.617Z,99868.31
2023-12-30T20:58:18.740Z,99869.27
2023-12-30T21:00:47.899Z,99870.41
2023-12-30T21:03:17.940Z,99868.63
2023-12-30T21:05:47.378Z,99872.06
2023-12-30T21:08:17.644Z,99870.38
2023-12-30T21:10:49.553Z,99870.55
2023-12-30T21:13:21.666Z,99873.83
2023-12-30T21:15:53.838Z,99872.01
2023-12-30T21:18:23.500Z,99870.13
2023-12-30T21:20:53.964Z,99870.46
2023-12-30T21:23:24.030Z,99873.13
2023-12-30T21:25:56.131Z,99877.35
2023-12-30T21:28:29.872Z,99891.41
2023-12-30T21:31:03.909Z,99899.59
2023-12-30T21:33:35.167Z,99901.52
2023-12-30T21:36:07.989Z,99902.35
2023-12-30T21:38:39.516Z,99905.73
2023-12-30T21:41:12.342Z,99908.92
2023-12-30T21:43:42.835Z,99911.73
2023-12-30T21:49:58.694Z,99917.02
2023-12-30T21:52:28.215Z,99913.86
2023-12-30T21:54:58.621Z,99912.89
2023-12-30T21:57:30.213Z,99914.36
2023-12-30T22:00:01.154Z,99921.64
2023-12-30T22:02:35.650Z,99919.82
2023-12-30T22:05:04.498Z,99923.38
2023-12-30T22:07:35.402Z,99931.08
2023-12-30T22:10:05.389Z,99933.58
2023-12-30T22:12:39.510Z,99936.93
2023-12-30T22:15:09.209Z,99941.17
2023-12-30T22:17:38.347Z,99944.33
2023-12-30T22:20:09.421Z,99948.15
2023-12-30T22:22:41.542Z,99954.71
2023-12-30T22:25:11.956Z,99952.89
2023-12-30T22:27:42.642Z,99954.48
2023-12-30T22:30:12.270Z,99952.85
2023-12-30T22:32:44.420Z,99957.45
2023-12-30T22:35:17.136Z,99959.21
2023-12-30T22:37:47.415Z,99962.05
2023-12-30T22:40:16.782Z,99957.17
2023-12-30T22:42:45.975Z,99956.56
2023-12-30T22:45:19.049Z,99962.08
2023-12-30T22:47:49.519Z,99962.17
2023-12-30T22:50:18.670Z,99960.40
2023-12-30T22:52:47.619Z,99961.17
2023-12-30T22:55:17.922Z,99959.23
2023-12-30T22:57:46.994Z,99961.71
2023-12-30T23:00:22.558Z,99960.33
2023-12-30T23:02:52.608Z,99962.05
2023-12-30T23:05:22.282Z,99962.50
2023-12-30T23:07:52.927Z,99960.46
2023-12-30T23:10:22.461Z,99964.37
2023-12-30T23:12:53.087Z,99963.48
2023-12-30T23:15:23.815Z,99965.35
2023-12-30T23:17:54.552Z,99966.16
2023-12-30T23:20:25.277Z,99966.80
2023-12-30T23:22:55.331Z,99970.23
2023-12-30T23:25:25.778Z,99967.13
2023-12-30T23:27:56.311Z,99966.59
2023-12-30T23:30:27.409Z,99961.65
2023-12-30T23:32:59.274Z,99959.69
2023-12-30T23:35:29.751Z,99960.41
2023-12-30T23:38:02.263Z,99961.44
2023-12-30T23:40:35.357Z,99963.73
2023-12-30T23:43:04.370Z,99958.30
2023-12-30T23:45:35.832Z,99961.95
2023-12-30T23:48:05.783Z,99962.38
2023-12-30T23:50:36.475Z,99960.67
2023-12-30T23:53:05.417Z,99960.99
2023-12-30T23:55:35.258Z,99960.94
2023-12-30T23:58:05.365Z,99962.55
